Ardmore, South Dakota
Current Conditions -  °F | °C
As of 7:53 PM on Sunday 23 Nov 2014 (Local Time) from KCUT Reporting Station
Overcast Overcast  
Wind Chill: -10°   Ceiling: 5000
Heat Index: -3°   Visibility: 10mi
Dew Point: -9°   Wind: 16mph
Humidity: 61%   Direction: 310°NW
Pressure: 29.68"   Gusts: 25mph
Location:  43.1994°N, 103.759°W
Report Text: KCUT 240253Z AUTO 31014G22KT 10SM SCT036 SCT042 OVC050 M03/M09 A2968 RMK AO2 PK WND 30031/0211 SLP078 T10281094 58001
Loading
Personal Weather Stations






























Interactive Weather Map New forecast layout! Learn more

10-Day Weather Forecast

Advertisements
Track Severe Weather on mobile